Navios Taurus — 9HA3414 — position and weather

sailwx.info

Track history (hours):
 
Tides and Currents Weather Stations Pressure Air Temp Water Temp Dewpoint Dewpoint Depression Visibility Wind Speed Wind Dir Waves Ship Positions

Navios Taurus

Last reported at 2018-Jan-19 08:00 UTC. Time now 2018-Jan-19 08:02 UTC.
Position N 49°18' W 123°03'.

Length 225 m; draft 7.3 m.

Type: Ship. MMSI: 229569000.

Date/timePositionNaut miles runAvg speedWind from/ knotsBaromVisibWave heightAir tempDewpointWater temp
2018-Jan-19 08:00N 49°18' W 123°03'0 0.0
2018-Jan-19 07:30N 49°18' W 123°03'0 0.0
2018-Jan-19 07:00N 49°18' W 123°03'0 0.0
2018-Jan-19 06:30N 49°18' W 123°03'0 0.0
2018-Jan-19 06:00N 49°18' W 123°03'0 0.0
2018-Jan-19 05:30N 49°18' W 123°03'0 0.0
2018-Jan-19 05:00N 49°18' W 123°03'0 0.0
2018-Jan-19 04:30N 49°18' W 123°03'0 0.0
2018-Jan-19 04:00N 49°18' W 123°03'0 0.0
2018-Jan-19 03:30N 49°18' W 123°03'0 0.0
2018-Jan-19 03:00N 49°18' W 123°03'0 0.0
2018-Jan-19 02:30N 49°18' W 123°03'0 0.0
2018-Jan-19 02:00N 49°18' W 123°03'0 0.0
2018-Jan-19 01:30N 49°18' W 123°03'0 0.0
2018-Jan-19 01:00N 49°18' W 123°03'0 0.0
2018-Jan-19 00:30N 49°18' W 123°03'0 0.0
2018-Jan-19 00:00N 49°18' W 123°03'0 0.0
2018-Jan-18 23:30N 49°18' W 123°03'0 0.0
2018-Jan-18 23:00N 49°18' W 123°03'0 0.0
2018-Jan-18 22:30N 49°18' W 123°03'0 0.0
2018-Jan-18 22:00N 49°18' W 123°03'0 0.0
2018-Jan-18 21:30N 49°18' W 123°03'0 0.0
2018-Jan-18 21:00N 49°18' W 123°03'0 0.0
2018-Jan-18 20:30N 49°18' W 123°03'0 0.0
2018-Jan-18 20:00N 49°18' W 123°03'0 0.0
2018-Jan-18 19:30N 49°18' W 123°03'0 0.0
2018-Jan-18 19:00N 49°18' W 123°03'0 0.0
2018-Jan-18 18:30N 49°18' W 123°03'0 0.0
2018-Jan-18 18:00N 49°18' W 123°03'0 0.0
2018-Jan-18 17:30N 49°18' W 123°03'0 0.0
2018-Jan-18 17:00N 49°18' W 123°03'0 0.0
2018-Jan-18 16:30N 49°18' W 123°03'0 0.0
2018-Jan-18 16:00N 49°18' W 123°03'0 0.0
2018-Jan-18 15:30N 49°18' W 123°03'0 0.0
2018-Jan-18 15:00N 49°18' W 123°03'0 0.0
2018-Jan-18 14:30N 49°18' W 123°03'0 0.0
2018-Jan-18 14:00N 49°18' W 123°03'0 0.0
2018-Jan-18 13:30N 49°18' W 123°03'0 0.0
2018-Jan-18 13:00N 49°18' W 123°03'0 0.0
2018-Jan-18 12:30N 49°18' W 123°03'0 0.0
2018-Jan-18 12:00N 49°18' W 123°03'0 0.0
2018-Jan-18 11:30N 49°18' W 123°03'0 0.0
2018-Jan-18 11:00N 49°18' W 123°03'0 0.0
2018-Jan-18 10:30N 49°18' W 123°03'0 0.0
2018-Jan-18 10:00N 49°18' W 123°03'0 0.0
2018-Jan-18 09:30N 49°18' W 123°03'0 0.0
2018-Jan-18 09:00N 49°18' W 123°03'0 0.0
2018-Jan-18 08:30N 49°18' W 123°03'0 0.0
2018-Jan-18 08:00N 49°18' W 123°03'0 0.0
2018-Jan-18 07:30N 49°18' W 123°03'0 0.0
2018-Jan-18 07:00N 49°18' W 123°03'0 0.0
2018-Jan-18 06:30N 49°18' W 123°03'0 0.0
2018-Jan-18 06:00N 49°18' W 123°03'0 0.0
2018-Jan-18 05:30N 49°18' W 123°03'0 0.0
2018-Jan-18 05:00N 49°18' W 123°03'0 0.0
2018-Jan-18 04:30N 49°18' W 123°03'0 0.0
2018-Jan-18 04:00N 49°18' W 123°03'0 0.0
2018-Jan-18 03:30N 49°18' W 123°03'0 0.0
2018-Jan-18 03:00N 49°18' W 123°03'0 0.0
2018-Jan-18 02:30N 49°18' W 123°03'0 0.0
2018-Jan-18 02:00N 49°18' W 123°03'0 0.0
2018-Jan-18 01:30N 49°18' W 123°03'0 0.0
2018-Jan-18 01:00N 49°18' W 123°03'0 0.0
2018-Jan-18 00:00N 49°18' W 123°03'0 0.0
2018-Jan-17 23:57N 49°18' W 123°03'  
2018-Jan-12 15:00N 48°29' W 123°10'510.6
2018-Jan-12 14:30N 48°24' W 123°12'611.3
2018-Jan-12 14:00N 48°22' W 123°20'3 6.6
2018-Jan-12 13:30N 48°20' W 123°24'4 5.9
2018-Jan-12 12:55N 48°17' W 123°26'4 8.2
2018-Jan-12 12:27N 48°14' W 123°30'4 5.2
2018-Jan-12 11:41N 48°14' W 123°36'3 6.6
2018-Jan-12 11:11N 48°13' W 123°41'6 4.9
2018-Jan-12 09:52N 48°13' W 123°50'3 8.6
2018-Jan-12 09:30N 48°13' W 123°55'5 9.9
2018-Jan-12 09:00N 48°16' W 124°02'510.3
2018-Jan-12 08:30N 48°18' W 124°09'510.0
2018-Jan-12 08:00N 48°20' W 124°16'510.2
2018-Jan-12 07:30N 48°22' W 124°23'510.1
2018-Jan-12 07:00N 48°24' W 124°29'5 9.6
2018-Jan-12 06:30N 48°26' W 124°36'5 9.2
2018-Jan-12 06:00N 48°28' W 124°42'4 8.8
2018-Jan-12 05:30N 48°29' W 124°49'4 8.2
2018-Jan-12 05:00N 48°29' W 124°55'4 7.6
2018-Jan-12 04:29N 48°29' W 125°01'4 7.8
2018-Jan-12 04:00N 48°28' W 125°07'4 7.8
2018-Jan-12 03:30N 48°28' W 125°12'4 7.6
2018-Jan-12 03:00N 48°28' W 125°18'4 7.4
2018-Jan-12 02:30N 48°28' W 125°24'4 7.5
2018-Jan-12 02:00N 48°28' W 125°30'4 8.6
2018-Jan-12 01:29N 48°28' W 125°36'4 8.8
2018-Jan-12 01:00N 48°28' W 125°42'4 8.1
2018-Jan-12 00:30N 48°28' W 125°49'4 7.8
2018-Jan-12 00:00N 48°28' W 125°55'4 7.8
2018-Jan-11 23:30N 48°28' W 126°00'4 7.5
2018-Jan-11 22:59N 48°28' W 126°06'3 7.1
2018-Jan-11 22:30N 48°28' W 126°11'3 6.8
2018-Jan-11 22:00N 48°28' W 126°17'4 6.5
2018-Jan-11 21:27N 48°28' W 126°22'4 8.6
2018-Jan-11 20:59N 48°28' W 126°28'  
Track history (hours):
 
Tides and Currents Weather Stations Pressure Air Temp Water Temp Dewpoint Dewpoint Depression Visibility Wind Speed Wind Dir Waves Ship Positions

Navios Taurus

Last reported at 2018-Jan-19 08:00 UTC. Time now 2018-Jan-19 08:02 UTC.
Position N 49°18' W 123°03'.

Length 225 m; draft 7.3 m.

Type: Ship. MMSI: 229569000.

Date/timePositionNaut miles runAvg speedWind from/ knotsBaromVisibWave heightAir tempDewpointWater temp
2018-Jan-19 08:00N 49°18' W 123°03'0 0.0
2018-Jan-19 07:30N 49°18' W 123°03'0 0.0
2018-Jan-19 07:00N 49°18' W 123°03'0 0.0
2018-Jan-19 06:30N 49°18' W 123°03'0 0.0
2018-Jan-19 06:00N 49°18' W 123°03'0 0.0
2018-Jan-19 05:30N 49°18' W 123°03'0 0.0
2018-Jan-19 05:00N 49°18' W 123°03'0 0.0
2018-Jan-19 04:30N 49°18' W 123°03'0 0.0
2018-Jan-19 04:00N 49°18' W 123°03'0 0.0
2018-Jan-19 03:30N 49°18' W 123°03'0 0.0
2018-Jan-19 03:00N 49°18' W 123°03'0 0.0
2018-Jan-19 02:30N 49°18' W 123°03'0 0.0
2018-Jan-19 02:00N 49°18' W 123°03'0 0.0
2018-Jan-19 01:30N 49°18' W 123°03'0 0.0
2018-Jan-19 01:00N 49°18' W 123°03'0 0.0
2018-Jan-19 00:30N 49°18' W 123°03'0 0.0
2018-Jan-19 00:00N 49°18' W 123°03'0 0.0
2018-Jan-18 23:30N 49°18' W 123°03'0 0.0
2018-Jan-18 23:00N 49°18' W 123°03'0 0.0
2018-Jan-18 22:30N 49°18' W 123°03'0 0.0
2018-Jan-18 22:00N 49°18' W 123°03'0 0.0
2018-Jan-18 21:30N 49°18' W 123°03'0 0.0
2018-Jan-18 21:00N 49°18' W 123°03'0 0.0
2018-Jan-18 20:30N 49°18' W 123°03'0 0.0
2018-Jan-18 20:00N 49°18' W 123°03'0 0.0
2018-Jan-18 19:30N 49°18' W 123°03'0 0.0
2018-Jan-18 19:00N 49°18' W 123°03'0 0.0
2018-Jan-18 18:30N 49°18' W 123°03'0 0.0
2018-Jan-18 18:00N 49°18' W 123°03'0 0.0
2018-Jan-18 17:30N 49°18' W 123°03'0 0.0
2018-Jan-18 17:00N 49°18' W 123°03'0 0.0
2018-Jan-18 16:30N 49°18' W 123°03'0 0.0
2018-Jan-18 16:00N 49°18' W 123°03'0 0.0
2018-Jan-18 15:30N 49°18' W 123°03'0 0.0
2018-Jan-18 15:00N 49°18' W 123°03'0 0.0
2018-Jan-18 14:30N 49°18' W 123°03'0 0.0
2018-Jan-18 14:00N 49°18' W 123°03'0 0.0
2018-Jan-18 13:30N 49°18' W 123°03'0 0.0
2018-Jan-18 13:00N 49°18' W 123°03'0 0.0
2018-Jan-18 12:30N 49°18' W 123°03'0 0.0
2018-Jan-18 12:00N 49°18' W 123°03'0 0.0
2018-Jan-18 11:30N 49°18' W 123°03'0 0.0
2018-Jan-18 11:00N 49°18' W 123°03'0 0.0
2018-Jan-18 10:30N 49°18' W 123°03'0 0.0
2018-Jan-18 10:00N 49°18' W 123°03'0 0.0
2018-Jan-18 09:30N 49°18' W 123°03'0 0.0
2018-Jan-18 09:00N 49°18' W 123°03'0 0.0
2018-Jan-18 08:30N 49°18' W 123°03'0 0.0
2018-Jan-18 08:00N 49°18' W 123°03'0 0.0
2018-Jan-18 07:30N 49°18' W 123°03'0 0.0
2018-Jan-18 07:00N 49°18' W 123°03'0 0.0
2018-Jan-18 06:30N 49°18' W 123°03'0 0.0
2018-Jan-18 06:00N 49°18' W 123°03'0 0.0
2018-Jan-18 05:30N 49°18' W 123°03'0 0.0
2018-Jan-18 05:00N 49°18' W 123°03'0 0.0
2018-Jan-18 04:30N 49°18' W 123°03'0 0.0
2018-Jan-18 04:00N 49°18' W 123°03'0 0.0
2018-Jan-18 03:30N 49°18' W 123°03'0 0.0
2018-Jan-18 03:00N 49°18' W 123°03'0 0.0
2018-Jan-18 02:30N 49°18' W 123°03'0 0.0
2018-Jan-18 02:00N 49°18' W 123°03'0 0.0
2018-Jan-18 01:30N 49°18' W 123°03'0 0.0
2018-Jan-18 01:00N 49°18' W 123°03'0 0.0
2018-Jan-18 00:00N 49°18' W 123°03'0 0.0
2018-Jan-17 23:57N 49°18' W 123°03'  
2018-Jan-12 15:00N 48°29' W 123°10'510.6
2018-Jan-12 14:30N 48°24' W 123°12'611.3
2018-Jan-12 14:00N 48°22' W 123°20'3 6.6
2018-Jan-12 13:30N 48°20' W 123°24'4 5.9
2018-Jan-12 12:55N 48°17' W 123°26'4 8.2
2018-Jan-12 12:27N 48°14' W 123°30'4 5.2
2018-Jan-12 11:41N 48°14' W 123°36'3 6.6
2018-Jan-12 11:11N 48°13' W 123°41'6 4.9
2018-Jan-12 09:52N 48°13' W 123°50'3 8.6
2018-Jan-12 09:30N 48°13' W 123°55'5 9.9
2018-Jan-12 09:00N 48°16' W 124°02'510.3
2018-Jan-12 08:30N 48°18' W 124°09'510.0
2018-Jan-12 08:00N 48°20' W 124°16'510.2
2018-Jan-12 07:30N 48°22' W 124°23'510.1
2018-Jan-12 07:00N 48°24' W 124°29'5 9.6
2018-Jan-12 06:30N 48°26' W 124°36'5 9.2
2018-Jan-12 06:00N 48°28' W 124°42'4 8.8
2018-Jan-12 05:30N 48°29' W 124°49'4 8.2
2018-Jan-12 05:00N 48°29' W 124°55'4 7.6
2018-Jan-12 04:29N 48°29' W 125°01'4 7.8
2018-Jan-12 04:00N 48°28' W 125°07'4 7.8
2018-Jan-12 03:30N 48°28' W 125°12'4 7.6
2018-Jan-12 03:00N 48°28' W 125°18'4 7.4
2018-Jan-12 02:30N 48°28' W 125°24'4 7.5
2018-Jan-12 02:00N 48°28' W 125°30'4 8.6
2018-Jan-12 01:29N 48°28' W 125°36'4 8.8
2018-Jan-12 01:00N 48°28' W 125°42'4 8.1
2018-Jan-12 00:30N 48°28' W 125°49'4 7.8
2018-Jan-12 00:00N 48°28' W 125°55'4 7.8
2018-Jan-11 23:30N 48°28' W 126°00'4 7.5
2018-Jan-11 22:59N 48°28' W 126°06'3 7.1
2018-Jan-11 22:30N 48°28' W 126°11'3 6.8
2018-Jan-11 22:00N 48°28' W 126°17'4 6.5
2018-Jan-11 21:27N 48°28' W 126°22'4 8.6
2018-Jan-11 20:59N 48°28' W 126°28'  

Dump ship's entire track history